<?xml version='1.0' encoding='UTF-8'?>
<gpx version="1.1" creator="https://www.komoot.de" xmlns="http://www.topografix.com/GPX/1/1" xmlns:xsi="http://www.w3.org/2001/XMLSchema-instance" xsi:schemaLocation="http://www.topografix.com/GPX/1/1 http://www.topografix.com/GPX/1/1/gpx.xsd">
  <metadata>
    <name>Polles1</name>
    <author>
      <link href="https://www.komoot.de">
        <text>komoot</text>
        <type>text/html</type>
      </link>
    </author>
  </metadata>
  <trk>
    <name>Polles1</name>
    <trkseg>
      <trkpt lat="47.037571" lon="10.972108">
        <ele>1210.321484</ele>
        <time>2025-07-13T15:36:17.044Z</time>
      </trkpt>
      <trkpt lat="47.037560" lon="10.971896">
        <ele>1210.321484</ele>
        <time>2025-07-13T15:36:20.836Z</time>
      </trkpt>
      <trkpt lat="47.037474" lon="10.971514">
        <ele>1210.321484</ele>
        <time>2025-07-13T15:36:27.948Z</time>
      </trkpt>
      <trkpt lat="47.037425" lon="10.971273">
        <ele>1210.321484</ele>
        <time>2025-07-13T15:36:32.789Z</time>
      </trkpt>
      <trkpt lat="47.037458" lon="10.971135">
        <ele>1210.321484</ele>
        <time>2025-07-13T15:36:35.917Z</time>
      </trkpt>
      <trkpt lat="47.037351" lon="10.971154">
        <ele>1210.321484</ele>
        <time>2025-07-13T15:36:39.995Z</time>
      </trkpt>
      <trkpt lat="47.037290" lon="10.971271">
        <ele>1210.321484</ele>
        <time>2025-07-13T15:36:44.212Z</time>
      </trkpt>
      <trkpt lat="47.037268" lon="10.971443">
        <ele>1211.350041</ele>
        <time>2025-07-13T15:36:49.367Z</time>
      </trkpt>
      <trkpt lat="47.037271" lon="10.972190">
        <ele>1215.777548</ele>
        <time>2025-07-13T15:37:12.910Z</time>
      </trkpt>
      <trkpt lat="47.037245" lon="10.972324">
        <ele>1216.603319</ele>
        <time>2025-07-13T15:37:17.062Z</time>
      </trkpt>
      <trkpt lat="47.037219" lon="10.972438">
        <ele>1217.315822</ele>
        <time>2025-07-13T15:37:20.738Z</time>
      </trkpt>
      <trkpt lat="47.036986" lon="10.972799">
        <ele>1220.262682</ele>
        <time>2025-07-13T15:37:34.625Z</time>
      </trkpt>
      <trkpt lat="47.036864" lon="10.973291">
        <ele>1223.365778</ele>
        <time>2025-07-13T15:37:47.021Z</time>
      </trkpt>
      <trkpt lat="47.036753" lon="10.973492">
        <ele>1224.899112</ele>
        <time>2025-07-13T15:37:52.932Z</time>
      </trkpt>
      <trkpt lat="47.036702" lon="10.973771">
        <ele>1226.460900</ele>
        <time>2025-07-13T15:37:59.518Z</time>
      </trkpt>
      <trkpt lat="47.036676" lon="10.974619">
        <ele>1230.324425</ele>
        <time>2025-07-13T15:38:14.572Z</time>
      </trkpt>
      <trkpt lat="47.036517" lon="10.975007">
        <ele>1232.385040</ele>
        <time>2025-07-13T15:38:22.245Z</time>
      </trkpt>
      <trkpt lat="47.036509" lon="10.975060">
        <ele>1232.632113</ele>
        <time>2025-07-13T15:38:23.269Z</time>
      </trkpt>
      <trkpt lat="47.036558" lon="10.975312">
        <ele>1233.824847</ele>
        <time>2025-07-13T15:38:28.252Z</time>
      </trkpt>
      <trkpt lat="47.036550" lon="10.975383">
        <ele>1234.152387</ele>
        <time>2025-07-13T15:38:29.656Z</time>
      </trkpt>
      <trkpt lat="47.036476" lon="10.975458">
        <ele>1234.753013</ele>
        <time>2025-07-13T15:38:32.633Z</time>
      </trkpt>
      <trkpt lat="47.036476" lon="10.975298">
        <ele>1235.481246</ele>
        <time>2025-07-13T15:38:36.328Z</time>
      </trkpt>
      <trkpt lat="47.036351" lon="10.974972">
        <ele>1237.183732</ele>
        <time>2025-07-13T15:38:46.749Z</time>
      </trkpt>
      <trkpt lat="47.036378" lon="10.974597">
        <ele>1239.880264</ele>
        <time>2025-07-13T15:38:59.398Z</time>
      </trkpt>
      <trkpt lat="47.036303" lon="10.974080">
        <ele>1244.836695</ele>
        <time>2025-07-13T15:39:20.299Z</time>
      </trkpt>
      <trkpt lat="47.036319" lon="10.973703">
        <ele>1248.378614</ele>
        <time>2025-07-13T15:39:36.394Z</time>
      </trkpt>
      <trkpt lat="47.036375" lon="10.973385">
        <ele>1251.458381</ele>
        <time>2025-07-13T15:39:49.941Z</time>
      </trkpt>
      <trkpt lat="47.036392" lon="10.972967">
        <ele>1255.384871</ele>
        <time>2025-07-13T15:40:06.078Z</time>
      </trkpt>
      <trkpt lat="47.036468" lon="10.972605">
        <ele>1258.936686</ele>
        <time>2025-07-13T15:40:19.231Z</time>
      </trkpt>
      <trkpt lat="47.036487" lon="10.972382">
        <ele>1261.043993</ele>
        <time>2025-07-13T15:40:26.240Z</time>
      </trkpt>
      <trkpt lat="47.036488" lon="10.972103">
        <ele>1263.353018</ele>
        <time>2025-07-13T15:40:34.169Z</time>
      </trkpt>
      <trkpt lat="47.036450" lon="10.971798">
        <ele>1265.308579</ele>
        <time>2025-07-13T15:40:42.376Z</time>
      </trkpt>
      <trkpt lat="47.036435" lon="10.970590">
        <ele>1272.928885</ele>
        <time>2025-07-13T15:41:10.987Z</time>
      </trkpt>
      <trkpt lat="47.036366" lon="10.970390">
        <ele>1274.342730</ele>
        <time>2025-07-13T15:41:16.484Z</time>
      </trkpt>
      <trkpt lat="47.036303" lon="10.970024">
        <ele>1276.723641</ele>
        <time>2025-07-13T15:41:26.357Z</time>
      </trkpt>
      <trkpt lat="47.036192" lon="10.969923">
        <ele>1277.932364</ele>
        <time>2025-07-13T15:41:31.552Z</time>
      </trkpt>
      <trkpt lat="47.036022" lon="10.969912">
        <ele>1279.549445</ele>
        <time>2025-07-13T15:41:38.615Z</time>
      </trkpt>
      <trkpt lat="47.035945" lon="10.969827">
        <ele>1280.710880</ele>
        <time>2025-07-13T15:41:42.788Z</time>
      </trkpt>
      <trkpt lat="47.035896" lon="10.969601">
        <ele>1282.659100</ele>
        <time>2025-07-13T15:41:50.021Z</time>
      </trkpt>
      <trkpt lat="47.035883" lon="10.969386">
        <ele>1284.432215</ele>
        <time>2025-07-13T15:41:56.961Z</time>
      </trkpt>
      <trkpt lat="47.035807" lon="10.969237">
        <ele>1285.961047</ele>
        <time>2025-07-13T15:42:03.173Z</time>
      </trkpt>
      <trkpt lat="47.035770" lon="10.969042">
        <ele>1287.623854</ele>
        <time>2025-07-13T15:42:09.999Z</time>
      </trkpt>
      <trkpt lat="47.035657" lon="10.968795">
        <ele>1290.067657</ele>
        <time>2025-07-13T15:42:20.084Z</time>
      </trkpt>
      <trkpt lat="47.035621" lon="10.968897">
        <ele>1291.011256</ele>
        <time>2025-07-13T15:42:23.967Z</time>
      </trkpt>
      <trkpt lat="47.035629" lon="10.969179">
        <ele>1293.329842</ele>
        <time>2025-07-13T15:42:33.479Z</time>
      </trkpt>
      <trkpt lat="47.035548" lon="10.969493">
        <ele>1296.087882</ele>
        <time>2025-07-13T15:42:44.422Z</time>
      </trkpt>
      <trkpt lat="47.035560" lon="10.969710">
        <ele>1297.876359</ele>
        <time>2025-07-13T15:42:51.381Z</time>
      </trkpt>
      <trkpt lat="47.035333" lon="10.970759">
        <ele>1308.286811</ele>
        <time>2025-07-13T15:43:25.728Z</time>
      </trkpt>
      <trkpt lat="47.035290" lon="10.971157">
        <ele>1312.369148</ele>
        <time>2025-07-13T15:43:39.151Z</time>
      </trkpt>
      <trkpt lat="47.035310" lon="10.971240">
        <ele>1313.260997</ele>
        <time>2025-07-13T15:43:42.385Z</time>
      </trkpt>
      <trkpt lat="47.035518" lon="10.971435">
        <ele>1316.929971</ele>
        <time>2025-07-13T15:43:55.964Z</time>
      </trkpt>
      <trkpt lat="47.035627" lon="10.971626">
        <ele>1319.453663</ele>
        <time>2025-07-13T15:44:05.844Z</time>
      </trkpt>
      <trkpt lat="47.035348" lon="10.972116">
        <ele>1325.922023</ele>
        <time>2025-07-13T15:44:32.364Z</time>
      </trkpt>
      <trkpt lat="47.035267" lon="10.972302">
        <ele>1328.205909</ele>
        <time>2025-07-13T15:44:41.902Z</time>
      </trkpt>
      <trkpt lat="47.035199" lon="10.972426">
        <ele>1330.023109</ele>
        <time>2025-07-13T15:44:48.918Z</time>
      </trkpt>
      <trkpt lat="47.034932" lon="10.972724">
        <ele>1335.643098</ele>
        <time>2025-07-13T15:45:10.951Z</time>
      </trkpt>
      <trkpt lat="47.034769" lon="10.972954">
        <ele>1339.431632</ele>
        <time>2025-07-13T15:45:25.955Z</time>
      </trkpt>
      <trkpt lat="47.034621" lon="10.973035">
        <ele>1342.077895</ele>
        <time>2025-07-13T15:45:36.140Z</time>
      </trkpt>
      <trkpt lat="47.034404" lon="10.973180">
        <ele>1346.072460</ele>
        <time>2025-07-13T15:45:51.107Z</time>
      </trkpt>
      <trkpt lat="47.034019" lon="10.973586">
        <ele>1354.015321</ele>
        <time>2025-07-13T15:46:17.397Z</time>
      </trkpt>
      <trkpt lat="47.033671" lon="10.974276">
        <ele>1363.072750</ele>
        <time>2025-07-13T15:46:46.780Z</time>
      </trkpt>
      <trkpt lat="47.033576" lon="10.974657">
        <ele>1367.121502</ele>
        <time>2025-07-13T15:47:01.296Z</time>
      </trkpt>
      <trkpt lat="47.033183" lon="10.975062">
        <ele>1374.153571</ele>
        <time>2025-07-13T15:47:26.686Z</time>
      </trkpt>
      <trkpt lat="47.032950" lon="10.975345">
        <ele>1378.582587</ele>
        <time>2025-07-13T15:47:43.474Z</time>
      </trkpt>
      <trkpt lat="47.032870" lon="10.975500">
        <ele>1380.522949</ele>
        <time>2025-07-13T15:47:50.900Z</time>
      </trkpt>
      <trkpt lat="47.032854" lon="10.975634">
        <ele>1381.880624</ele>
        <time>2025-07-13T15:47:56.424Z</time>
      </trkpt>
      <trkpt lat="47.032504" lon="10.976068">
        <ele>1387.378496</ele>
        <time>2025-07-13T15:48:23.494Z</time>
      </trkpt>
      <trkpt lat="47.032364" lon="10.976353">
        <ele>1389.905364</ele>
        <time>2025-07-13T15:48:35.655Z</time>
      </trkpt>
      <trkpt lat="47.032304" lon="10.976592">
        <ele>1391.737345</ele>
        <time>2025-07-13T15:48:43.419Z</time>
      </trkpt>
      <trkpt lat="47.032204" lon="10.976685">
        <ele>1392.986799</ele>
        <time>2025-07-13T15:48:48.206Z</time>
      </trkpt>
      <trkpt lat="47.031967" lon="10.976793">
        <ele>1395.605733</ele>
        <time>2025-07-13T15:48:57.255Z</time>
      </trkpt>
      <trkpt lat="47.031931" lon="10.976846">
        <ele>1396.143935</ele>
        <time>2025-07-13T15:48:59.002Z</time>
      </trkpt>
      <trkpt lat="47.031898" lon="10.976923">
        <ele>1396.798173</ele>
        <time>2025-07-13T15:49:01.497Z</time>
      </trkpt>
      <trkpt lat="47.031860" lon="10.977201">
        <ele>1398.837604</ele>
        <time>2025-07-13T15:49:08.055Z</time>
      </trkpt>
      <trkpt lat="47.031888" lon="10.977669">
        <ele>1402.216807</ele>
        <time>2025-07-13T15:49:18.723Z</time>
      </trkpt>
      <trkpt lat="47.031961" lon="10.977945">
        <ele>1404.319315</ele>
        <time>2025-07-13T15:49:25.766Z</time>
      </trkpt>
      <trkpt lat="47.031990" lon="10.978208">
        <ele>1406.189292</ele>
        <time>2025-07-13T15:49:32.526Z</time>
      </trkpt>
      <trkpt lat="47.031833" lon="10.978668">
        <ele>1409.800176</ele>
        <time>2025-07-13T15:49:45.087Z</time>
      </trkpt>
      <trkpt lat="47.031776" lon="10.978782">
        <ele>1410.792546</ele>
        <time>2025-07-13T15:49:48.912Z</time>
      </trkpt>
      <trkpt lat="47.031549" lon="10.979021">
        <ele>1413.669794</ele>
        <time>2025-07-13T15:50:01.300Z</time>
      </trkpt>
      <trkpt lat="47.031290" lon="10.979089">
        <ele>1416.379310</ele>
        <time>2025-07-13T15:50:12.556Z</time>
      </trkpt>
      <trkpt lat="47.031122" lon="10.979208">
        <ele>1418.300431</ele>
        <time>2025-07-13T15:50:20.828Z</time>
      </trkpt>
      <trkpt lat="47.030974" lon="10.979481">
        <ele>1420.748828</ele>
        <time>2025-07-13T15:50:31.920Z</time>
      </trkpt>
      <trkpt lat="47.030682" lon="10.979576">
        <ele>1424.502661</ele>
        <time>2025-07-13T15:50:47.168Z</time>
      </trkpt>
      <trkpt lat="47.030640" lon="10.979622">
        <ele>1425.217661</ele>
        <time>2025-07-13T15:50:50.221Z</time>
      </trkpt>
      <trkpt lat="47.030605" lon="10.979820">
        <ele>1427.119635</ele>
        <time>2025-07-13T15:50:57.641Z</time>
      </trkpt>
      <trkpt lat="47.030546" lon="10.979947">
        <ele>1428.548728</ele>
        <time>2025-07-13T15:51:02.922Z</time>
      </trkpt>
      <trkpt lat="47.030109" lon="10.980028">
        <ele>1434.557572</ele>
        <time>2025-07-13T15:51:25.799Z</time>
      </trkpt>
      <trkpt lat="47.029544" lon="10.980342">
        <ele>1442.799652</ele>
        <time>2025-07-13T15:51:55.889Z</time>
      </trkpt>
      <trkpt lat="47.029042" lon="10.981046">
        <ele>1452.129641</ele>
        <time>2025-07-13T15:52:33.416Z</time>
      </trkpt>
      <trkpt lat="47.028986" lon="10.981270">
        <ele>1454.294934</ele>
        <time>2025-07-13T15:52:41.537Z</time>
      </trkpt>
      <trkpt lat="47.028967" lon="10.981555">
        <ele>1456.893747</ele>
        <time>2025-07-13T15:52:51.031Z</time>
      </trkpt>
      <trkpt lat="47.028507" lon="10.982230">
        <ele>1465.556100</ele>
        <time>2025-07-13T15:53:22.320Z</time>
      </trkpt>
      <trkpt lat="47.028249" lon="10.982419">
        <ele>1469.395602</ele>
        <time>2025-07-13T15:53:36.561Z</time>
      </trkpt>
      <trkpt lat="47.028129" lon="10.982568">
        <ele>1471.170582</ele>
        <time>2025-07-13T15:53:44.388Z</time>
      </trkpt>
      <trkpt lat="47.027750" lon="10.983446">
        <ele>1478.203115</ele>
        <time>2025-07-13T15:54:20.201Z</time>
      </trkpt>
      <trkpt lat="47.027626" lon="10.983631">
        <ele>1479.958850</ele>
        <time>2025-07-13T15:54:29.083Z</time>
      </trkpt>
      <trkpt lat="47.027219" lon="10.983991">
        <ele>1484.676912</ele>
        <time>2025-07-13T15:54:50.247Z</time>
      </trkpt>
      <trkpt lat="47.026964" lon="10.984309">
        <ele>1487.999452</ele>
        <time>2025-07-13T15:55:00.178Z</time>
      </trkpt>
      <trkpt lat="47.026591" lon="10.984639">
        <ele>1487.009900</ele>
        <time>2025-07-13T15:55:07.879Z</time>
      </trkpt>
      <trkpt lat="47.026545" lon="10.984657">
        <ele>1486.888774</ele>
        <time>2025-07-13T15:55:08.611Z</time>
      </trkpt>
      <trkpt lat="47.026222" lon="10.984535">
        <ele>1486.040190</ele>
        <time>2025-07-13T15:55:13.546Z</time>
      </trkpt>
      <trkpt lat="47.026062" lon="10.984625">
        <ele>1485.604215</ele>
        <time>2025-07-13T15:55:16.072Z</time>
      </trkpt>
      <trkpt lat="47.025995" lon="10.984687">
        <ele>1485.402672</ele>
        <time>2025-07-13T15:55:17.256Z</time>
      </trkpt>
      <trkpt lat="47.025907" lon="10.984768">
        <ele>1485.138358</ele>
        <time>2025-07-13T15:55:18.758Z</time>
      </trkpt>
      <trkpt lat="47.025593" lon="10.984246">
        <ele>1483.930960</ele>
        <time>2025-07-13T15:55:29.895Z</time>
      </trkpt>
      <trkpt lat="47.025487" lon="10.983918">
        <ele>1484.130717</ele>
        <time>2025-07-13T15:55:36.200Z</time>
      </trkpt>
      <trkpt lat="47.025274" lon="10.982988">
        <ele>1488.951483</ele>
        <time>2025-07-13T15:55:57.479Z</time>
      </trkpt>
      <trkpt lat="47.025100" lon="10.982829">
        <ele>1490.429154</ele>
        <time>2025-07-13T15:56:07.191Z</time>
      </trkpt>
      <trkpt lat="47.024917" lon="10.982814">
        <ele>1491.750324</ele>
        <time>2025-07-13T15:56:16.961Z</time>
      </trkpt>
      <trkpt lat="47.024802" lon="10.982765">
        <ele>1492.613534</ele>
        <time>2025-07-13T15:56:23.468Z</time>
      </trkpt>
      <trkpt lat="47.024766" lon="10.982612">
        <ele>1493.408862</ele>
        <time>2025-07-13T15:56:29.622Z</time>
      </trkpt>
      <trkpt lat="47.024676" lon="10.982390">
        <ele>1494.678046</ele>
        <time>2025-07-13T15:56:39.642Z</time>
      </trkpt>
      <trkpt lat="47.024543" lon="10.982218">
        <ele>1495.956096</ele>
        <time>2025-07-13T15:56:49.265Z</time>
      </trkpt>
      <trkpt lat="47.023875" lon="10.981397">
        <ele>1507.901106</ele>
        <time>2025-07-13T15:57:37.801Z</time>
      </trkpt>
      <trkpt lat="47.023478" lon="10.981094">
        <ele>1514.301365</ele>
        <time>2025-07-13T15:58:06.786Z</time>
      </trkpt>
      <trkpt lat="47.023157" lon="10.980317">
        <ele>1523.117849</ele>
        <time>2025-07-13T15:58:43.617Z</time>
      </trkpt>
      <trkpt lat="47.022757" lon="10.980032">
        <ele>1529.201665</ele>
        <time>2025-07-13T15:59:08.713Z</time>
      </trkpt>
      <trkpt lat="47.022376" lon="10.979704">
        <ele>1535.245528</ele>
        <time>2025-07-13T15:59:34.737Z</time>
      </trkpt>
      <trkpt lat="47.022120" lon="10.979691">
        <ele>1538.749988</ele>
        <time>2025-07-13T15:59:48.516Z</time>
      </trkpt>
      <trkpt lat="47.022000" lon="10.979613">
        <ele>1540.545679</ele>
        <time>2025-07-13T15:59:55.312Z</time>
      </trkpt>
      <trkpt lat="47.021803" lon="10.979307">
        <ele>1544.471116</ele>
        <time>2025-07-13T16:00:10.409Z</time>
      </trkpt>
      <trkpt lat="47.021683" lon="10.979193">
        <ele>1546.427073</ele>
        <time>2025-07-13T16:00:18.155Z</time>
      </trkpt>
      <trkpt lat="47.021564" lon="10.979145">
        <ele>1548.399675</ele>
        <time>2025-07-13T16:00:25.132Z</time>
      </trkpt>
      <trkpt lat="47.021205" lon="10.978715">
        <ele>1556.124572</ele>
        <time>2025-07-13T16:00:53.430Z</time>
      </trkpt>
      <trkpt lat="47.021015" lon="10.978379">
        <ele>1561.084814</ele>
        <time>2025-07-13T16:01:13.237Z</time>
      </trkpt>
      <trkpt lat="47.020697" lon="10.978137">
        <ele>1567.055811</ele>
        <time>2025-07-13T16:01:38.589Z</time>
      </trkpt>
      <trkpt lat="47.020371" lon="10.977504">
        <ele>1576.069999</ele>
        <time>2025-07-13T16:02:16.798Z</time>
      </trkpt>
      <trkpt lat="47.020051" lon="10.976989">
        <ele>1583.382884</ele>
        <time>2025-07-13T16:02:48.986Z</time>
      </trkpt>
      <trkpt lat="47.019868" lon="10.976747">
        <ele>1587.144345</ele>
        <time>2025-07-13T16:03:04.999Z</time>
      </trkpt>
      <trkpt lat="47.019280" lon="10.976238">
        <ele>1597.567541</ele>
        <time>2025-07-13T16:03:46.422Z</time>
      </trkpt>
      <trkpt lat="47.018794" lon="10.975927">
        <ele>1605.311840</ele>
        <time>2025-07-13T16:04:15.258Z</time>
      </trkpt>
      <trkpt lat="47.018500" lon="10.975581">
        <ele>1609.637568</ele>
        <time>2025-07-13T16:04:34.871Z</time>
      </trkpt>
      <trkpt lat="47.018500" lon="10.975581">
        <ele>1609.637568</ele>
        <time>2025-07-13T16:04:34.930Z</time>
      </trkpt>
      <trkpt lat="47.018500" lon="10.975581">
        <ele>1609.637568</ele>
        <time>2025-07-13T16:04:34.930Z</time>
      </trkpt>
      <trkpt lat="47.018516" lon="10.975552">
        <ele>1609.929452</ele>
        <time>2025-07-13T16:04:36.023Z</time>
      </trkpt>
      <trkpt lat="47.018443" lon="10.975448">
        <ele>1611.097323</ele>
        <time>2025-07-13T16:04:40.403Z</time>
      </trkpt>
      <trkpt lat="47.018364" lon="10.975354">
        <ele>1612.264727</ele>
        <time>2025-07-13T16:04:44.774Z</time>
      </trkpt>
      <trkpt lat="47.018288" lon="10.975274">
        <ele>1613.338260</ele>
        <time>2025-07-13T16:04:48.792Z</time>
      </trkpt>
      <trkpt lat="47.018100" lon="10.975118">
        <ele>1615.817078</ele>
        <time>2025-07-13T16:04:58.074Z</time>
      </trkpt>
      <trkpt lat="47.018202" lon="10.975096">
        <ele>1617.000225</ele>
        <time>2025-07-13T16:05:02.497Z</time>
      </trkpt>
      <trkpt lat="47.018300" lon="10.975150">
        <ele>1618.201621</ele>
        <time>2025-07-13T16:05:06.997Z</time>
      </trkpt>
      <trkpt lat="47.018393" lon="10.975202">
        <ele>1619.343811</ele>
        <time>2025-07-13T16:05:11.270Z</time>
      </trkpt>
      <trkpt lat="47.018497" lon="10.975249">
        <ele>1620.592688</ele>
        <time>2025-07-13T16:05:15.939Z</time>
      </trkpt>
      <trkpt lat="47.018601" lon="10.975307">
        <ele>1621.869556</ele>
        <time>2025-07-13T16:05:20.720Z</time>
      </trkpt>
      <trkpt lat="47.018700" lon="10.975364">
        <ele>1623.090080</ele>
        <time>2025-07-13T16:05:25.287Z</time>
      </trkpt>
      <trkpt lat="47.018777" lon="10.975452">
        <ele>1624.210298</ele>
        <time>2025-07-13T16:05:29.482Z</time>
      </trkpt>
      <trkpt lat="47.018873" lon="10.975516">
        <ele>1625.671196</ele>
        <time>2025-07-13T16:05:34.017Z</time>
      </trkpt>
      <trkpt lat="47.018974" lon="10.975519">
        <ele>1627.380703</ele>
        <time>2025-07-13T16:05:38.368Z</time>
      </trkpt>
      <trkpt lat="47.018983" lon="10.975452">
        <ele>1628.168537</ele>
        <time>2025-07-13T16:05:40.368Z</time>
      </trkpt>
      <trkpt lat="47.018938" lon="10.975439">
        <ele>1628.944671</ele>
        <time>2025-07-13T16:05:42.982Z</time>
      </trkpt>
      <trkpt lat="47.018768" lon="10.975078">
        <ele>1634.006469</ele>
        <time>2025-07-13T16:06:00.247Z</time>
      </trkpt>
      <trkpt lat="47.018455" lon="10.974884">
        <ele>1639.756632</ele>
        <time>2025-07-13T16:06:21.567Z</time>
      </trkpt>
      <trkpt lat="47.017676" lon="10.973777">
        <ele>1658.209029</ele>
        <time>2025-07-13T16:07:43.128Z</time>
      </trkpt>
      <trkpt lat="47.017183" lon="10.973175">
        <ele>1669.446036</ele>
        <time>2025-07-13T16:08:31.998Z</time>
      </trkpt>
      <trkpt lat="47.016692" lon="10.972810">
        <ele>1679.088587</ele>
        <time>2025-07-13T16:09:08.045Z</time>
      </trkpt>
      <trkpt lat="47.016821" lon="10.972775">
        <ele>1681.386644</ele>
        <time>2025-07-13T16:09:15.931Z</time>
      </trkpt>
      <trkpt lat="47.017244" lon="10.972946">
        <ele>1688.798872</ele>
        <time>2025-07-13T16:09:40.760Z</time>
      </trkpt>
      <trkpt lat="47.017339" lon="10.973019">
        <ele>1690.447484</ele>
        <time>2025-07-13T16:09:46.566Z</time>
      </trkpt>
      <trkpt lat="47.017404" lon="10.973040">
        <ele>1691.470617</ele>
        <time>2025-07-13T16:09:50.259Z</time>
      </trkpt>
      <trkpt lat="47.017423" lon="10.972986">
        <ele>1692.107474</ele>
        <time>2025-07-13T16:09:52.533Z</time>
      </trkpt>
      <trkpt lat="47.017401" lon="10.972904">
        <ele>1693.031004</ele>
        <time>2025-07-13T16:09:55.795Z</time>
      </trkpt>
      <trkpt lat="47.017294" lon="10.972813">
        <ele>1694.932305</ele>
        <time>2025-07-13T16:10:02.599Z</time>
      </trkpt>
      <trkpt lat="47.016973" lon="10.972655">
        <ele>1700.137158</ele>
        <time>2025-07-13T16:10:21.440Z</time>
      </trkpt>
      <trkpt lat="47.016702" lon="10.972340">
        <ele>1705.452493</ele>
        <time>2025-07-13T16:10:42.334Z</time>
      </trkpt>
      <trkpt lat="47.016239" lon="10.971535">
        <ele>1716.859073</ele>
        <time>2025-07-13T16:11:31.320Z</time>
      </trkpt>
      <trkpt lat="47.016087" lon="10.971113">
        <ele>1722.781002</ele>
        <time>2025-07-13T16:11:55.184Z</time>
      </trkpt>
      <trkpt lat="47.016026" lon="10.970688">
        <ele>1728.169958</ele>
        <time>2025-07-13T16:12:17.065Z</time>
      </trkpt>
      <trkpt lat="47.016027" lon="10.970177">
        <ele>1734.510442</ele>
        <time>2025-07-13T16:12:42.685Z</time>
      </trkpt>
      <trkpt lat="47.015993" lon="10.970107">
        <ele>1735.576866</ele>
        <time>2025-07-13T16:12:46.987Z</time>
      </trkpt>
      <trkpt lat="47.015631" lon="10.969707">
        <ele>1743.825224</ele>
        <time>2025-07-13T16:13:18.905Z</time>
      </trkpt>
      <trkpt lat="47.015242" lon="10.968951">
        <ele>1751.752174</ele>
        <time>2025-07-13T16:13:59.348Z</time>
      </trkpt>
      <trkpt lat="47.014799" lon="10.968388">
        <ele>1757.537946</ele>
        <time>2025-07-13T16:14:28.108Z</time>
      </trkpt>
      <trkpt lat="47.014658" lon="10.968252">
        <ele>1759.203663</ele>
        <time>2025-07-13T16:14:35.099Z</time>
      </trkpt>
      <trkpt lat="47.014297" lon="10.967525">
        <ele>1765.038942</ele>
        <time>2025-07-13T16:14:56.596Z</time>
      </trkpt>
      <trkpt lat="47.014166" lon="10.967103">
        <ele>1765.771489</ele>
        <time>2025-07-13T16:15:06.629Z</time>
      </trkpt>
      <trkpt lat="47.014021" lon="10.966955">
        <ele>1766.180825</ele>
        <time>2025-07-13T16:15:12.127Z</time>
      </trkpt>
      <trkpt lat="47.013875" lon="10.966605">
        <ele>1766.829056</ele>
        <time>2025-07-13T16:15:20.775Z</time>
      </trkpt>
      <trkpt lat="47.013421" lon="10.966072">
        <ele>1768.176548</ele>
        <time>2025-07-13T16:15:38.887Z</time>
      </trkpt>
      <trkpt lat="47.013067" lon="10.965844">
        <ele>1769.072418</ele>
        <time>2025-07-13T16:15:50.997Z</time>
      </trkpt>
      <trkpt lat="47.012876" lon="10.965651">
        <ele>1769.618485</ele>
        <time>2025-07-13T16:15:58.257Z</time>
      </trkpt>
      <trkpt lat="47.012653" lon="10.965506">
        <ele>1770.194083</ele>
        <time>2025-07-13T16:16:05.854Z</time>
      </trkpt>
      <trkpt lat="47.012499" lon="10.965323">
        <ele>1770.661778</ele>
        <time>2025-07-13T16:16:12.048Z</time>
      </trkpt>
      <trkpt lat="47.012305" lon="10.965189">
        <ele>1771.167778</ele>
        <time>2025-07-13T16:16:18.734Z</time>
      </trkpt>
      <trkpt lat="47.011935" lon="10.964777">
        <ele>1772.263977</ele>
        <time>2025-07-13T16:16:33.458Z</time>
      </trkpt>
      <trkpt lat="47.011821" lon="10.964592">
        <ele>1772.665172</ele>
        <time>2025-07-13T16:16:38.934Z</time>
      </trkpt>
      <trkpt lat="47.011669" lon="10.964135">
        <ele>1773.550726</ele>
        <time>2025-07-13T16:16:50.049Z</time>
      </trkpt>
      <trkpt lat="47.011647" lon="10.963839">
        <ele>1774.355779</ele>
        <time>2025-07-13T16:16:56.535Z</time>
      </trkpt>
      <trkpt lat="47.011544" lon="10.963594">
        <ele>1775.133992</ele>
        <time>2025-07-13T16:17:02.859Z</time>
      </trkpt>
      <trkpt lat="47.011414" lon="10.963380">
        <ele>1775.908923</ele>
        <time>2025-07-13T16:17:09.227Z</time>
      </trkpt>
      <trkpt lat="47.010632" lon="10.962577">
        <ele>1779.694339</ele>
        <time>2025-07-13T16:17:41.333Z</time>
      </trkpt>
      <trkpt lat="47.010364" lon="10.962363">
        <ele>1781.291949</ele>
        <time>2025-07-13T16:17:51.884Z</time>
      </trkpt>
      <trkpt lat="47.010197" lon="10.961960">
        <ele>1783.840717</ele>
        <time>2025-07-13T16:18:03.654Z</time>
      </trkpt>
      <trkpt lat="47.010061" lon="10.961865">
        <ele>1785.034727</ele>
        <time>2025-07-13T16:18:09.586Z</time>
      </trkpt>
      <trkpt lat="47.009860" lon="10.961814">
        <ele>1786.651581</ele>
        <time>2025-07-13T16:18:17.607Z</time>
      </trkpt>
      <trkpt lat="47.009744" lon="10.961677">
        <ele>1787.832111</ele>
        <time>2025-07-13T16:18:23.363Z</time>
      </trkpt>
      <trkpt lat="47.009622" lon="10.961314">
        <ele>1790.019401</ele>
        <time>2025-07-13T16:18:34.700Z</time>
      </trkpt>
      <trkpt lat="47.009428" lon="10.960996">
        <ele>1792.325588</ele>
        <time>2025-07-13T16:18:48.380Z</time>
      </trkpt>
      <trkpt lat="47.009286" lon="10.960812">
        <ele>1793.827525</ele>
        <time>2025-07-13T16:18:57.958Z</time>
      </trkpt>
      <trkpt lat="47.009180" lon="10.960793">
        <ele>1794.673965</ele>
        <time>2025-07-13T16:19:03.453Z</time>
      </trkpt>
      <trkpt lat="47.008989" lon="10.960854">
        <ele>1796.782994</ele>
        <time>2025-07-13T16:19:13.554Z</time>
      </trkpt>
      <trkpt lat="47.008879" lon="10.960875">
        <ele>1798.001481</ele>
        <time>2025-07-13T16:19:19.334Z</time>
      </trkpt>
      <trkpt lat="47.008766" lon="10.960996">
        <ele>1799.538389</ele>
        <time>2025-07-13T16:19:26.580Z</time>
      </trkpt>
      <trkpt lat="47.008673" lon="10.961434">
        <ele>1802.974452</ele>
        <time>2025-07-13T16:19:42.239Z</time>
      </trkpt>
      <trkpt lat="47.008548" lon="10.961677">
        <ele>1805.254389</ele>
        <time>2025-07-13T16:19:52.102Z</time>
      </trkpt>
      <trkpt lat="47.008508" lon="10.961685">
        <ele>1805.697835</ele>
        <time>2025-07-13T16:19:54.003Z</time>
      </trkpt>
      <trkpt lat="47.008472" lon="10.960961">
        <ele>1811.135140</ele>
        <time>2025-07-13T16:20:18.126Z</time>
      </trkpt>
      <trkpt lat="47.008320" lon="10.960498">
        <ele>1815.100575</ele>
        <time>2025-07-13T16:20:35.782Z</time>
      </trkpt>
      <trkpt lat="47.008071" lon="10.960254">
        <ele>1819.233992</ele>
        <time>2025-07-13T16:20:50.519Z</time>
      </trkpt>
      <trkpt lat="47.007849" lon="10.959937">
        <ele>1823.510697</ele>
        <time>2025-07-13T16:21:06.364Z</time>
      </trkpt>
      <trkpt lat="47.007548" lon="10.959707">
        <ele>1828.195333</ele>
        <time>2025-07-13T16:21:24.850Z</time>
      </trkpt>
      <trkpt lat="47.007358" lon="10.959584">
        <ele>1831.061926</ele>
        <time>2025-07-13T16:21:37.012Z</time>
      </trkpt>
      <trkpt lat="47.006393" lon="10.959532">
        <ele>1845.442945</ele>
        <time>2025-07-13T16:22:40.704Z</time>
      </trkpt>
      <trkpt lat="47.005972" lon="10.959587">
        <ele>1852.496641</ele>
        <time>2025-07-13T16:23:09.418Z</time>
      </trkpt>
      <trkpt lat="47.005738" lon="10.959508">
        <ele>1856.503910</ele>
        <time>2025-07-13T16:23:25.359Z</time>
      </trkpt>
      <trkpt lat="47.005552" lon="10.959517">
        <ele>1859.609666</ele>
        <time>2025-07-13T16:23:37.709Z</time>
      </trkpt>
      <trkpt lat="47.005114" lon="10.959179">
        <ele>1867.869573</ele>
        <time>2025-07-13T16:24:09.904Z</time>
      </trkpt>
      <trkpt lat="47.004782" lon="10.959081">
        <ele>1872.723396</ele>
        <time>2025-07-13T16:24:31.059Z</time>
      </trkpt>
      <trkpt lat="47.004118" lon="10.958630">
        <ele>1882.587054</ele>
        <time>2025-07-13T16:25:14.133Z</time>
      </trkpt>
      <trkpt lat="47.003794" lon="10.958656">
        <ele>1886.960846</ele>
        <time>2025-07-13T16:25:31.571Z</time>
      </trkpt>
      <trkpt lat="47.003689" lon="10.958726">
        <ele>1888.515563</ele>
        <time>2025-07-13T16:25:37.534Z</time>
      </trkpt>
      <trkpt lat="47.003550" lon="10.958697">
        <ele>1890.408039</ele>
        <time>2025-07-13T16:25:44.684Z</time>
      </trkpt>
      <trkpt lat="47.003450" lon="10.958737">
        <ele>1891.805207</ele>
        <time>2025-07-13T16:25:49.928Z</time>
      </trkpt>
      <trkpt lat="47.003158" lon="10.958601">
        <ele>1895.708735</ele>
        <time>2025-07-13T16:26:04.938Z</time>
      </trkpt>
      <trkpt lat="47.002873" lon="10.958566">
        <ele>1899.187697</ele>
        <time>2025-07-13T16:26:18.742Z</time>
      </trkpt>
      <trkpt lat="47.002753" lon="10.958471">
        <ele>1900.846565</ele>
        <time>2025-07-13T16:26:25.394Z</time>
      </trkpt>
      <trkpt lat="47.002362" lon="10.958435">
        <ele>1905.612172</ele>
        <time>2025-07-13T16:26:45.152Z</time>
      </trkpt>
      <trkpt lat="47.002048" lon="10.958597">
        <ele>1909.661288</ele>
        <time>2025-07-13T16:27:02.982Z</time>
      </trkpt>
      <trkpt lat="47.001895" lon="10.958866">
        <ele>1912.567084</ele>
        <time>2025-07-13T16:27:16.287Z</time>
      </trkpt>
      <trkpt lat="47.001620" lon="10.959139">
        <ele>1916.872039</ele>
        <time>2025-07-13T16:27:35.478Z</time>
      </trkpt>
      <trkpt lat="47.001278" lon="10.959666">
        <ele>1924.347628</ele>
        <time>2025-07-13T16:28:05.131Z</time>
      </trkpt>
      <trkpt lat="47.001038" lon="10.959677">
        <ele>1927.965741</ele>
        <time>2025-07-13T16:28:19.726Z</time>
      </trkpt>
      <trkpt lat="47.000913" lon="10.959718">
        <ele>1929.895804</ele>
        <time>2025-07-13T16:28:27.593Z</time>
      </trkpt>
      <trkpt lat="47.000290" lon="10.959508">
        <ele>1939.528094</ele>
        <time>2025-07-13T16:29:07.072Z</time>
      </trkpt>
      <trkpt lat="46.999739" lon="10.959568">
        <ele>1948.055578</ele>
        <time>2025-07-13T16:29:42.188Z</time>
      </trkpt>
      <trkpt lat="46.998931" lon="10.959248">
        <ele>1961.151842</ele>
        <time>2025-07-13T16:30:35.950Z</time>
      </trkpt>
      <trkpt lat="46.998692" lon="10.959086">
        <ele>1965.271872</ele>
        <time>2025-07-13T16:30:52.375Z</time>
      </trkpt>
      <trkpt lat="46.998349" lon="10.959006">
        <ele>1970.706448</ele>
        <time>2025-07-13T16:31:13.458Z</time>
      </trkpt>
      <trkpt lat="46.998187" lon="10.958847">
        <ele>1973.360496</ele>
        <time>2025-07-13T16:31:24.859Z</time>
      </trkpt>
      <trkpt lat="46.997808" lon="10.958205">
        <ele>1981.230686</ele>
        <time>2025-07-13T16:31:57.699Z</time>
      </trkpt>
      <trkpt lat="46.997565" lon="10.958085">
        <ele>1984.715402</ele>
        <time>2025-07-13T16:32:11.709Z</time>
      </trkpt>
      <trkpt lat="46.997367" lon="10.957761">
        <ele>1988.747738</ele>
        <time>2025-07-13T16:32:27.841Z</time>
      </trkpt>
      <trkpt lat="46.996901" lon="10.957455">
        <ele>1995.630186</ele>
        <time>2025-07-13T16:32:56.411Z</time>
      </trkpt>
      <trkpt lat="46.996792" lon="10.957448">
        <ele>1996.944887</ele>
        <time>2025-07-13T16:33:02.627Z</time>
      </trkpt>
      <trkpt lat="46.996603" lon="10.957195">
        <ele>2000.028742</ele>
        <time>2025-07-13T16:33:17.112Z</time>
      </trkpt>
      <trkpt lat="46.996460" lon="10.957159">
        <ele>2001.777097</ele>
        <time>2025-07-13T16:33:25.314Z</time>
      </trkpt>
      <trkpt lat="46.996278" lon="10.956817">
        <ele>2005.342203</ele>
        <time>2025-07-13T16:33:41.859Z</time>
      </trkpt>
      <trkpt lat="46.996049" lon="10.956720">
        <ele>2008.214485</ele>
        <time>2025-07-13T16:33:54.767Z</time>
      </trkpt>
      <trkpt lat="46.995899" lon="10.956555">
        <ele>2010.474122</ele>
        <time>2025-07-13T16:34:04.516Z</time>
      </trkpt>
      <trkpt lat="46.995733" lon="10.956200">
        <ele>2014.011594</ele>
        <time>2025-07-13T16:34:19.443Z</time>
      </trkpt>
      <trkpt lat="46.995548" lon="10.956089">
        <ele>2016.420274</ele>
        <time>2025-07-13T16:34:29.333Z</time>
      </trkpt>
      <trkpt lat="46.995348" lon="10.956062">
        <ele>2017.207697</ele>
        <time>2025-07-13T16:34:38.718Z</time>
      </trkpt>
      <trkpt lat="46.995208" lon="10.956009">
        <ele>2017.513788</ele>
        <time>2025-07-13T16:34:44.856Z</time>
      </trkpt>
      <trkpt lat="46.994903" lon="10.955785">
        <ele>2018.235931</ele>
        <time>2025-07-13T16:34:57.694Z</time>
      </trkpt>
      <trkpt lat="46.994675" lon="10.955777">
        <ele>2018.718731</ele>
        <time>2025-07-13T16:35:05.227Z</time>
      </trkpt>
      <trkpt lat="46.994484" lon="10.955689">
        <ele>2019.142560</ele>
        <time>2025-07-13T16:35:11.453Z</time>
      </trkpt>
      <trkpt lat="46.994453" lon="10.955675">
        <ele>2019.211228</ele>
        <time>2025-07-13T16:35:12.434Z</time>
      </trkpt>
      <trkpt lat="46.994409" lon="10.955692">
        <ele>2019.307553</ele>
        <time>2025-07-13T16:35:13.832Z</time>
      </trkpt>
      <trkpt lat="46.994453" lon="10.955675">
        <ele>2019.403878</ele>
        <time>2025-07-13T16:35:15.199Z</time>
      </trkpt>
      <trkpt lat="46.994484" lon="10.955689">
        <ele>2019.472546</ele>
        <time>2025-07-13T16:35:16.161Z</time>
      </trkpt>
      <trkpt lat="46.994675" lon="10.955777">
        <ele>2019.896375</ele>
        <time>2025-07-13T16:35:21.767Z</time>
      </trkpt>
      <trkpt lat="46.994903" lon="10.955785">
        <ele>2020.379175</ele>
        <time>2025-07-13T16:35:27.520Z</time>
      </trkpt>
      <trkpt lat="46.995208" lon="10.956009">
        <ele>2018.535175</ele>
        <time>2025-07-13T16:35:35.461Z</time>
      </trkpt>
      <trkpt lat="46.995348" lon="10.956062">
        <ele>2017.031355</ele>
        <time>2025-07-13T16:35:38.648Z</time>
      </trkpt>
      <trkpt lat="46.995548" lon="10.956089">
        <ele>2014.942464</ele>
        <time>2025-07-13T16:35:42.960Z</time>
      </trkpt>
      <trkpt lat="46.995733" lon="10.956200">
        <ele>2012.863499</ele>
        <time>2025-07-13T16:35:47.199Z</time>
      </trkpt>
      <trkpt lat="46.995899" lon="10.956555">
        <ele>2009.810258</ele>
        <time>2025-07-13T16:35:53.375Z</time>
      </trkpt>
      <trkpt lat="46.996049" lon="10.956720">
        <ele>2007.859934</ele>
        <time>2025-07-13T16:35:57.300Z</time>
      </trkpt>
      <trkpt lat="46.996278" lon="10.956817">
        <ele>2005.380827</ele>
        <time>2025-07-13T16:36:02.254Z</time>
      </trkpt>
      <trkpt lat="46.996460" lon="10.957159">
        <ele>2002.303734</ele>
        <time>2025-07-13T16:36:08.348Z</time>
      </trkpt>
      <trkpt lat="46.996603" lon="10.957195">
        <ele>2000.468275</ele>
        <time>2025-07-13T16:36:11.322Z</time>
      </trkpt>
      <trkpt lat="46.996792" lon="10.957448">
        <ele>1997.061340</ele>
        <time>2025-07-13T16:36:16.564Z</time>
      </trkpt>
      <trkpt lat="46.996901" lon="10.957455">
        <ele>1995.608904</ele>
        <time>2025-07-13T16:36:18.822Z</time>
      </trkpt>
      <trkpt lat="46.997367" lon="10.957761">
        <ele>1988.811618</ele>
        <time>2025-07-13T16:36:29.321Z</time>
      </trkpt>
      <trkpt lat="46.997565" lon="10.958085">
        <ele>1984.861749</ele>
        <time>2025-07-13T16:36:35.459Z</time>
      </trkpt>
      <trkpt lat="46.997808" lon="10.958205">
        <ele>1981.448300</ele>
        <time>2025-07-13T16:36:40.749Z</time>
      </trkpt>
      <trkpt lat="46.998187" lon="10.958847">
        <ele>1973.154967</ele>
        <time>2025-07-13T16:36:52.640Z</time>
      </trkpt>
      <trkpt lat="46.998349" lon="10.959006">
        <ele>1970.205411</ele>
        <time>2025-07-13T16:36:56.613Z</time>
      </trkpt>
      <trkpt lat="46.998692" lon="10.959086">
        <ele>1964.950504</ele>
        <time>2025-07-13T16:37:03.644Z</time>
      </trkpt>
      <trkpt lat="46.998931" lon="10.959248">
        <ele>1960.966684</ele>
        <time>2025-07-13T16:37:08.946Z</time>
      </trkpt>
      <trkpt lat="46.999739" lon="10.959568">
        <ele>1948.237499</ele>
        <time>2025-07-13T16:37:25.698Z</time>
      </trkpt>
      <trkpt lat="47.000290" lon="10.959508">
        <ele>1939.657417</ele>
        <time>2025-07-13T16:37:36.799Z</time>
      </trkpt>
      <trkpt lat="47.000913" lon="10.959718">
        <ele>1929.730459</ele>
        <time>2025-07-13T16:37:49.674Z</time>
      </trkpt>
      <trkpt lat="47.001038" lon="10.959677">
        <ele>1927.741353</ele>
        <time>2025-07-13T16:37:52.265Z</time>
      </trkpt>
      <trkpt lat="47.001278" lon="10.959666">
        <ele>1924.012555</ele>
        <time>2025-07-13T16:37:57.112Z</time>
      </trkpt>
      <trkpt lat="47.001620" lon="10.959139">
        <ele>1917.364184</ele>
        <time>2025-07-13T16:38:07.185Z</time>
      </trkpt>
      <trkpt lat="47.001895" lon="10.958866">
        <ele>1913.036750</ele>
        <time>2025-07-13T16:38:13.972Z</time>
      </trkpt>
      <trkpt lat="47.002048" lon="10.958597">
        <ele>1909.923996</ele>
        <time>2025-07-13T16:38:18.882Z</time>
      </trkpt>
      <trkpt lat="47.002362" lon="10.958435">
        <ele>1905.586492</ele>
        <time>2025-07-13T16:38:25.794Z</time>
      </trkpt>
      <trkpt lat="47.002753" lon="10.958471">
        <ele>1900.481466</ele>
        <time>2025-07-13T16:38:34.054Z</time>
      </trkpt>
      <trkpt lat="47.002873" lon="10.958566">
        <ele>1898.740321</ele>
        <time>2025-07-13T16:38:36.956Z</time>
      </trkpt>
      <trkpt lat="47.003158" lon="10.958601">
        <ele>1895.196863</ele>
        <time>2025-07-13T16:38:43.061Z</time>
      </trkpt>
      <trkpt lat="47.003450" lon="10.958737">
        <ele>1891.400930</ele>
        <time>2025-07-13T16:38:49.552Z</time>
      </trkpt>
      <trkpt lat="47.003550" lon="10.958697">
        <ele>1890.116679</ele>
        <time>2025-07-13T16:38:51.756Z</time>
      </trkpt>
      <trkpt lat="47.003689" lon="10.958726">
        <ele>1888.377151</ele>
        <time>2025-07-13T16:38:54.701Z</time>
      </trkpt>
      <trkpt lat="47.003794" lon="10.958656">
        <ele>1886.948085</ele>
        <time>2025-07-13T16:38:57.103Z</time>
      </trkpt>
      <trkpt lat="47.004118" lon="10.958630">
        <ele>1882.927779</ele>
        <time>2025-07-13T16:39:03.854Z</time>
      </trkpt>
      <trkpt lat="47.004782" lon="10.959081">
        <ele>1872.857672</ele>
        <time>2025-07-13T16:39:18.756Z</time>
      </trkpt>
      <trkpt lat="47.005114" lon="10.959179">
        <ele>1867.380876</ele>
        <time>2025-07-13T16:39:25.555Z</time>
      </trkpt>
      <trkpt lat="47.005552" lon="10.959517">
        <ele>1859.376627</ele>
        <time>2025-07-13T16:39:35.438Z</time>
      </trkpt>
      <trkpt lat="47.005738" lon="10.959508">
        <ele>1856.367000</ele>
        <time>2025-07-13T16:39:39.164Z</time>
      </trkpt>
      <trkpt lat="47.005972" lon="10.959587">
        <ele>1852.483763</ele>
        <time>2025-07-13T16:39:43.930Z</time>
      </trkpt>
      <trkpt lat="47.006393" lon="10.959532">
        <ele>1845.782015</ele>
        <time>2025-07-13T16:39:52.327Z</time>
      </trkpt>
      <trkpt lat="47.007358" lon="10.959584">
        <ele>1831.030317</ele>
        <time>2025-07-13T16:40:11.568Z</time>
      </trkpt>
      <trkpt lat="47.007548" lon="10.959707">
        <ele>1827.857567</ele>
        <time>2025-07-13T16:40:15.786Z</time>
      </trkpt>
      <trkpt lat="47.007849" lon="10.959937">
        <ele>1822.672602</ele>
        <time>2025-07-13T16:40:22.824Z</time>
      </trkpt>
      <trkpt lat="47.008071" lon="10.960254">
        <ele>1818.638352</ele>
        <time>2025-07-13T16:40:29.334Z</time>
      </trkpt>
      <trkpt lat="47.008320" lon="10.960498">
        <ele>1815.272686</ele>
        <time>2025-07-13T16:40:35.691Z</time>
      </trkpt>
      <trkpt lat="47.008472" lon="10.960961">
        <ele>1811.334665</ele>
        <time>2025-07-13T16:40:43.075Z</time>
      </trkpt>
      <trkpt lat="47.008508" lon="10.961685">
        <ele>1805.771551</ele>
        <time>2025-07-13T16:40:53.590Z</time>
      </trkpt>
      <trkpt lat="47.008548" lon="10.961677">
        <ele>1805.317844</ele>
        <time>2025-07-13T16:40:54.473Z</time>
      </trkpt>
      <trkpt lat="47.008673" lon="10.961434">
        <ele>1802.985155</ele>
        <time>2025-07-13T16:40:58.922Z</time>
      </trkpt>
      <trkpt lat="47.008766" lon="10.960996">
        <ele>1799.618409</ele>
        <time>2025-07-13T16:41:05.524Z</time>
      </trkpt>
      <trkpt lat="47.008879" lon="10.960875">
        <ele>1798.305774</ele>
        <time>2025-07-13T16:41:08.451Z</time>
      </trkpt>
      <trkpt lat="47.008989" lon="10.960854">
        <ele>1797.265094</ele>
        <time>2025-07-13T16:41:10.771Z</time>
      </trkpt>
      <trkpt lat="47.009180" lon="10.960793">
        <ele>1795.431217</ele>
        <time>2025-07-13T16:41:14.874Z</time>
      </trkpt>
      <trkpt lat="47.009286" lon="10.960812">
        <ele>1794.429371</ele>
        <time>2025-07-13T16:41:17.116Z</time>
      </trkpt>
      <trkpt lat="47.009428" lon="10.960996">
        <ele>1792.651678</ele>
        <time>2025-07-13T16:41:21.107Z</time>
      </trkpt>
      <trkpt lat="47.009622" lon="10.961314">
        <ele>1789.922074</ele>
        <time>2025-07-13T16:41:27.354Z</time>
      </trkpt>
      <trkpt lat="47.009744" lon="10.961677">
        <ele>1787.333197</ele>
        <time>2025-07-13T16:41:33.534Z</time>
      </trkpt>
      <trkpt lat="47.009860" lon="10.961814">
        <ele>1785.935921</ele>
        <time>2025-07-13T16:41:36.975Z</time>
      </trkpt>
      <trkpt lat="47.010061" lon="10.961865">
        <ele>1784.022212</ele>
        <time>2025-07-13T16:41:41.602Z</time>
      </trkpt>
      <trkpt lat="47.010197" lon="10.961960">
        <ele>1783.053367</ele>
        <time>2025-07-13T16:41:45.037Z</time>
      </trkpt>
      <trkpt lat="47.010364" lon="10.962363">
        <ele>1781.547747</ele>
        <time>2025-07-13T16:41:52.603Z</time>
      </trkpt>
      <trkpt lat="47.010632" lon="10.962577">
        <ele>1780.118958</ele>
        <time>2025-07-13T16:42:00.055Z</time>
      </trkpt>
      <trkpt lat="47.011414" lon="10.963380">
        <ele>1775.649143</ele>
        <time>2025-07-13T16:42:23.746Z</time>
      </trkpt>
      <trkpt lat="47.011544" lon="10.963594">
        <ele>1774.876150</ele>
        <time>2025-07-13T16:42:28.772Z</time>
      </trkpt>
      <trkpt lat="47.011647" lon="10.963839">
        <ele>1774.340772</ele>
        <time>2025-07-13T16:42:33.862Z</time>
      </trkpt>
      <trkpt lat="47.011669" lon="10.964135">
        <ele>1773.786930</ele>
        <time>2025-07-13T16:42:39.212Z</time>
      </trkpt>
      <trkpt lat="47.011821" lon="10.964592">
        <ele>1772.841137</ele>
        <time>2025-07-13T16:42:48.272Z</time>
      </trkpt>
      <trkpt lat="47.011935" lon="10.964777">
        <ele>1772.377319</ele>
        <time>2025-07-13T16:42:52.672Z</time>
      </trkpt>
      <trkpt lat="47.012305" lon="10.965189">
        <ele>1771.110010</ele>
        <time>2025-07-13T16:43:05.068Z</time>
      </trkpt>
      <trkpt lat="47.012499" lon="10.965323">
        <ele>1770.525027</ele>
        <time>2025-07-13T16:43:10.998Z</time>
      </trkpt>
      <trkpt lat="47.012653" lon="10.965506">
        <ele>1770.035208</ele>
        <time>2025-07-13T16:43:16.483Z</time>
      </trkpt>
      <trkpt lat="47.012876" lon="10.965651">
        <ele>1769.554331</ele>
        <time>2025-07-13T16:43:23.212Z</time>
      </trkpt>
      <trkpt lat="47.013067" lon="10.965844">
        <ele>1769.097089</ele>
        <time>2025-07-13T16:43:29.598Z</time>
      </trkpt>
      <trkpt lat="47.013421" lon="10.966072">
        <ele>1768.334907</ele>
        <time>2025-07-13T16:43:40.200Z</time>
      </trkpt>
      <trkpt lat="47.013875" lon="10.966605">
        <ele>1767.188498</ele>
        <time>2025-07-13T16:43:56.370Z</time>
      </trkpt>
      <trkpt lat="47.014021" lon="10.966955">
        <ele>1766.637001</ele>
        <time>2025-07-13T16:44:04.336Z</time>
      </trkpt>
      <trkpt lat="47.014166" lon="10.967103">
        <ele>1765.487903</ele>
        <time>2025-07-13T16:44:09.301Z</time>
      </trkpt>
      <trkpt lat="47.014297" lon="10.967525">
        <ele>1763.367061</ele>
        <time>2025-07-13T16:44:17.710Z</time>
      </trkpt>
      <trkpt lat="47.014658" lon="10.968252">
        <ele>1759.253420</ele>
        <time>2025-07-13T16:44:32.495Z</time>
      </trkpt>
      <trkpt lat="47.014799" lon="10.968388">
        <ele>1758.121318</ele>
        <time>2025-07-13T16:44:36.271Z</time>
      </trkpt>
      <trkpt lat="47.015242" lon="10.968951">
        <ele>1753.628399</ele>
        <time>2025-07-13T16:44:48.706Z</time>
      </trkpt>
      <trkpt lat="47.015631" lon="10.969707">
        <ele>1742.676836</ele>
        <time>2025-07-13T16:45:01.698Z</time>
      </trkpt>
      <trkpt lat="47.015993" lon="10.970107">
        <ele>1734.990343</ele>
        <time>2025-07-13T16:45:10.639Z</time>
      </trkpt>
      <trkpt lat="47.016027" lon="10.970177">
        <ele>1733.996562</ele>
        <time>2025-07-13T16:45:11.786Z</time>
      </trkpt>
      <trkpt lat="47.016026" lon="10.970688">
        <ele>1728.087981</ele>
        <time>2025-07-13T16:45:18.620Z</time>
      </trkpt>
      <trkpt lat="47.016087" lon="10.971113">
        <ele>1723.083127</ele>
        <time>2025-07-13T16:45:24.428Z</time>
      </trkpt>
      <trkpt lat="47.016239" lon="10.971535">
        <ele>1717.659819</ele>
        <time>2025-07-13T16:45:30.790Z</time>
      </trkpt>
      <trkpt lat="47.016702" lon="10.972340">
        <ele>1705.692369</ele>
        <time>2025-07-13T16:45:45.045Z</time>
      </trkpt>
      <trkpt lat="47.016973" lon="10.972655">
        <ele>1699.929386</ele>
        <time>2025-07-13T16:45:52.041Z</time>
      </trkpt>
      <trkpt lat="47.017294" lon="10.972813">
        <ele>1694.286191</ele>
        <time>2025-07-13T16:45:59.004Z</time>
      </trkpt>
      <trkpt lat="47.017401" lon="10.972904">
        <ele>1692.305937</ele>
        <time>2025-07-13T16:46:01.564Z</time>
      </trkpt>
      <trkpt lat="47.017423" lon="10.972986">
        <ele>1691.348560</ele>
        <time>2025-07-13T16:46:02.813Z</time>
      </trkpt>
      <trkpt lat="47.017404" lon="10.973040">
        <ele>1690.688362</ele>
        <time>2025-07-13T16:46:03.677Z</time>
      </trkpt>
      <trkpt lat="47.017339" lon="10.973019">
        <ele>1689.627731</ele>
        <time>2025-07-13T16:46:05.061Z</time>
      </trkpt>
      <trkpt lat="47.017244" lon="10.972946">
        <ele>1687.918698</ele>
        <time>2025-07-13T16:46:07.284Z</time>
      </trkpt>
      <trkpt lat="47.016821" lon="10.972775">
        <ele>1680.926686</ele>
        <time>2025-07-13T16:46:16.276Z</time>
      </trkpt>
      <trkpt lat="47.016692" lon="10.972810">
        <ele>1678.836144</ele>
        <time>2025-07-13T16:46:18.944Z</time>
      </trkpt>
      <trkpt lat="47.017183" lon="10.973175">
        <ele>1670.064319</ele>
        <time>2025-07-13T16:46:29.934Z</time>
      </trkpt>
      <trkpt lat="47.017676" lon="10.973777">
        <ele>1658.963098</ele>
        <time>2025-07-13T16:46:42.439Z</time>
      </trkpt>
      <trkpt lat="47.018455" lon="10.974884">
        <ele>1638.951975</ele>
        <time>2025-07-13T16:47:03.611Z</time>
      </trkpt>
      <trkpt lat="47.018768" lon="10.975078">
        <ele>1632.682855</ele>
        <time>2025-07-13T16:47:10.452Z</time>
      </trkpt>
      <trkpt lat="47.018938" lon="10.975439">
        <ele>1629.883684</ele>
        <time>2025-07-13T16:47:16.645Z</time>
      </trkpt>
      <trkpt lat="47.019314" lon="10.975547">
        <ele>1626.610715</ele>
        <time>2025-07-13T16:47:24.969Z</time>
      </trkpt>
      <trkpt lat="47.019299" lon="10.975619">
        <ele>1626.172258</ele>
        <time>2025-07-13T16:47:26.125Z</time>
      </trkpt>
      <trkpt lat="47.019251" lon="10.975639">
        <ele>1625.745997</ele>
        <time>2025-07-13T16:47:27.276Z</time>
      </trkpt>
      <trkpt lat="47.019097" lon="10.975652">
        <ele>1624.428282</ele>
        <time>2025-07-13T16:47:30.874Z</time>
      </trkpt>
      <trkpt lat="47.018880" lon="10.975590">
        <ele>1622.539730</ele>
        <time>2025-07-13T16:47:36.136Z</time>
      </trkpt>
      <trkpt lat="47.018656" lon="10.975386">
        <ele>1620.287388</ele>
        <time>2025-07-13T16:47:42.478Z</time>
      </trkpt>
      <trkpt lat="47.018563" lon="10.975378">
        <ele>1619.491574</ele>
        <time>2025-07-13T16:47:44.724Z</time>
      </trkpt>
      <trkpt lat="47.018183" lon="10.975116">
        <ele>1615.671923</ele>
        <time>2025-07-13T16:47:54.575Z</time>
      </trkpt>
      <trkpt lat="47.018089" lon="10.975090">
        <ele>1614.656439</ele>
        <time>2025-07-13T16:47:56.770Z</time>
      </trkpt>
      <trkpt lat="47.018045" lon="10.975122">
        <ele>1614.135072</ele>
        <time>2025-07-13T16:47:57.899Z</time>
      </trkpt>
      <trkpt lat="47.018062" lon="10.975175">
        <ele>1613.711146</ele>
        <time>2025-07-13T16:47:58.803Z</time>
      </trkpt>
      <trkpt lat="47.018298" lon="10.975343">
        <ele>1610.926318</ele>
        <time>2025-07-13T16:48:04.649Z</time>
      </trkpt>
      <trkpt lat="47.018794" lon="10.975927">
        <ele>1604.174234</ele>
        <time>2025-07-13T16:48:18.211Z</time>
      </trkpt>
      <trkpt lat="47.019280" lon="10.976238">
        <ele>1598.545280</ele>
        <time>2025-07-13T16:48:29.082Z</time>
      </trkpt>
      <trkpt lat="47.019868" lon="10.976747">
        <ele>1587.571825</ele>
        <time>2025-07-13T16:48:42.831Z</time>
      </trkpt>
      <trkpt lat="47.020051" lon="10.976989">
        <ele>1583.450640</ele>
        <time>2025-07-13T16:48:47.763Z</time>
      </trkpt>
      <trkpt lat="47.020371" lon="10.977504">
        <ele>1575.504895</ele>
        <time>2025-07-13T16:48:57.183Z</time>
      </trkpt>
      <trkpt lat="47.020697" lon="10.978137">
        <ele>1566.548500</ele>
        <time>2025-07-13T16:49:07.857Z</time>
      </trkpt>
      <trkpt lat="47.021015" lon="10.978379">
        <ele>1560.994943</ele>
        <time>2025-07-13T16:49:14.916Z</time>
      </trkpt>
      <trkpt lat="47.021205" lon="10.978715">
        <ele>1556.381478</ele>
        <time>2025-07-13T16:49:20.844Z</time>
      </trkpt>
      <trkpt lat="47.021564" lon="10.979145">
        <ele>1549.196638</ele>
        <time>2025-07-13T16:49:30.202Z</time>
      </trkpt>
      <trkpt lat="47.021683" lon="10.979193">
        <ele>1547.283431</ele>
        <time>2025-07-13T16:49:32.733Z</time>
      </trkpt>
      <trkpt lat="47.021803" lon="10.979307">
        <ele>1545.067150</ele>
        <time>2025-07-13T16:49:35.699Z</time>
      </trkpt>
      <trkpt lat="47.022000" lon="10.979613">
        <ele>1540.619264</ele>
        <time>2025-07-13T16:49:41.695Z</time>
      </trkpt>
      <trkpt lat="47.022120" lon="10.979691">
        <ele>1538.707092</ele>
        <time>2025-07-13T16:49:44.431Z</time>
      </trkpt>
      <trkpt lat="47.022376" lon="10.979704">
        <ele>1535.135700</ele>
        <time>2025-07-13T16:49:49.757Z</time>
      </trkpt>
      <trkpt lat="47.022757" lon="10.980032">
        <ele>1528.976402</ele>
        <time>2025-07-13T16:49:58.743Z</time>
      </trkpt>
      <trkpt lat="47.023157" lon="10.980317">
        <ele>1522.776390</ele>
        <time>2025-07-13T16:50:07.884Z</time>
      </trkpt>
      <trkpt lat="47.023478" lon="10.981094">
        <ele>1514.157079</ele>
        <time>2025-07-13T16:50:20.459Z</time>
      </trkpt>
      <trkpt lat="47.023875" lon="10.981397">
        <ele>1508.088738</ele>
        <time>2025-07-13T16:50:29.400Z</time>
      </trkpt>
      <trkpt lat="47.024543" lon="10.982218">
        <ele>1496.271713</ele>
        <time>2025-07-13T16:50:47.334Z</time>
      </trkpt>
      <trkpt lat="47.024676" lon="10.982390">
        <ele>1493.867487</ele>
        <time>2025-07-13T16:50:51.024Z</time>
      </trkpt>
      <trkpt lat="47.024766" lon="10.982612">
        <ele>1491.479940</ele>
        <time>2025-07-13T16:50:54.631Z</time>
      </trkpt>
      <trkpt lat="47.024802" lon="10.982765">
        <ele>1490.257863</ele>
        <time>2025-07-13T16:50:56.901Z</time>
      </trkpt>
      <trkpt lat="47.024917" lon="10.982814">
        <ele>1489.899629</ele>
        <time>2025-07-13T16:50:59.373Z</time>
      </trkpt>
      <trkpt lat="47.025100" lon="10.982829">
        <ele>1489.351340</ele>
        <time>2025-07-13T16:51:03.193Z</time>
      </trkpt>
      <trkpt lat="47.025274" lon="10.982988">
        <ele>1488.738103</ele>
        <time>2025-07-13T16:51:07.585Z</time>
      </trkpt>
      <trkpt lat="47.025487" lon="10.983918">
        <ele>1486.737474</ele>
        <time>2025-07-13T16:51:25.299Z</time>
      </trkpt>
      <trkpt lat="47.025593" lon="10.984246">
        <ele>1485.997263</ele>
        <time>2025-07-13T16:51:33.388Z</time>
      </trkpt>
      <trkpt lat="47.025907" lon="10.984768">
        <ele>1484.983135</ele>
        <time>2025-07-13T16:51:50.868Z</time>
      </trkpt>
      <trkpt lat="47.025995" lon="10.984687">
        <ele>1485.006400</ele>
        <time>2025-07-13T16:51:54.267Z</time>
      </trkpt>
      <trkpt lat="47.026062" lon="10.984625">
        <ele>1485.024139</ele>
        <time>2025-07-13T16:51:56.648Z</time>
      </trkpt>
      <trkpt lat="47.026222" lon="10.984535">
        <ele>1485.062514</ele>
        <time>2025-07-13T16:52:01.996Z</time>
      </trkpt>
      <trkpt lat="47.026545" lon="10.984657">
        <ele>1485.137206</ele>
        <time>2025-07-13T16:52:12.253Z</time>
      </trkpt>
      <trkpt lat="47.026591" lon="10.984639">
        <ele>1485.147868</ele>
        <time>2025-07-13T16:52:13.631Z</time>
      </trkpt>
      <trkpt lat="47.026964" lon="10.984309">
        <ele>1485.245412</ele>
        <time>2025-07-13T16:52:24.081Z</time>
      </trkpt>
      <trkpt lat="47.027219" lon="10.983991">
        <ele>1485.320361</ele>
        <time>2025-07-13T16:52:29.099Z</time>
      </trkpt>
      <trkpt lat="47.027626" lon="10.983631">
        <ele>1481.623002</ele>
        <time>2025-07-13T16:52:35.447Z</time>
      </trkpt>
      <trkpt lat="47.027750" lon="10.983446">
        <ele>1479.482637</ele>
        <time>2025-07-13T16:52:37.749Z</time>
      </trkpt>
      <trkpt lat="47.028129" lon="10.982568">
        <ele>1470.909480</ele>
        <time>2025-07-13T16:52:46.982Z</time>
      </trkpt>
      <trkpt lat="47.028249" lon="10.982419">
        <ele>1469.006873</ele>
        <time>2025-07-13T16:52:49.029Z</time>
      </trkpt>
      <trkpt lat="47.028507" lon="10.982230">
        <ele>1465.516868</ele>
        <time>2025-07-13T16:52:52.807Z</time>
      </trkpt>
      <trkpt lat="47.028967" lon="10.981555">
        <ele>1456.923038</ele>
        <time>2025-07-13T16:53:01.362Z</time>
      </trkpt>
      <trkpt lat="47.028986" lon="10.981270">
        <ele>1454.274797</ele>
        <time>2025-07-13T16:53:03.920Z</time>
      </trkpt>
      <trkpt lat="47.029042" lon="10.981046">
        <ele>1452.068322</ele>
        <time>2025-07-13T16:53:06.041Z</time>
      </trkpt>
      <trkpt lat="47.029544" lon="10.980342">
        <ele>1442.646301</ele>
        <time>2025-07-13T16:53:14.999Z</time>
      </trkpt>
      <trkpt lat="47.030109" lon="10.980028">
        <ele>1434.585550</ele>
        <time>2025-07-13T16:53:22.895Z</time>
      </trkpt>
      <trkpt lat="47.030546" lon="10.979947">
        <ele>1428.781514</ele>
        <time>2025-07-13T16:53:28.605Z</time>
      </trkpt>
      <trkpt lat="47.030605" lon="10.979820">
        <ele>1427.401131</ele>
        <time>2025-07-13T16:53:29.965Z</time>
      </trkpt>
      <trkpt lat="47.030640" lon="10.979622">
        <ele>1425.563983</ele>
        <time>2025-07-13T16:53:31.766Z</time>
      </trkpt>
      <trkpt lat="47.030682" lon="10.979576">
        <ele>1424.873354</ele>
        <time>2025-07-13T16:53:32.438Z</time>
      </trkpt>
      <trkpt lat="47.030974" lon="10.979481">
        <ele>1420.932260</ele>
        <time>2025-07-13T16:53:36.333Z</time>
      </trkpt>
      <trkpt lat="47.031122" lon="10.979208">
        <ele>1417.799372</ele>
        <time>2025-07-13T16:53:39.474Z</time>
      </trkpt>
      <trkpt lat="47.031290" lon="10.979089">
        <ele>1415.386192</ele>
        <time>2025-07-13T16:53:41.975Z</time>
      </trkpt>
      <trkpt lat="47.031549" lon="10.979021">
        <ele>1412.991693</ele>
        <time>2025-07-13T16:53:45.509Z</time>
      </trkpt>
      <trkpt lat="47.031776" lon="10.978782">
        <ele>1410.448962</ele>
        <time>2025-07-13T16:53:49.238Z</time>
      </trkpt>
      <trkpt lat="47.031833" lon="10.978668">
        <ele>1409.571968</ele>
        <time>2025-07-13T16:53:50.554Z</time>
      </trkpt>
      <trkpt lat="47.031990" lon="10.978208">
        <ele>1406.380897</ele>
        <time>2025-07-13T16:53:55.482Z</time>
      </trkpt>
      <trkpt lat="47.031961" lon="10.977945">
        <ele>1404.728329</ele>
        <time>2025-07-13T16:53:58.001Z</time>
      </trkpt>
      <trkpt lat="47.031888" lon="10.977669">
        <ele>1402.891951</ele>
        <time>2025-07-13T16:54:00.860Z</time>
      </trkpt>
      <trkpt lat="47.031860" lon="10.977201">
        <ele>1399.977835</ele>
        <time>2025-07-13T16:54:05.450Z</time>
      </trkpt>
      <trkpt lat="47.031898" lon="10.976923">
        <ele>1397.882283</ele>
        <time>2025-07-13T16:54:08.221Z</time>
      </trkpt>
      <trkpt lat="47.031931" lon="10.976846">
        <ele>1397.106682</ele>
        <time>2025-07-13T16:54:09.621Z</time>
      </trkpt>
      <trkpt lat="47.031967" lon="10.976793">
        <ele>1396.468644</ele>
        <time>2025-07-13T16:54:10.343Z</time>
      </trkpt>
      <trkpt lat="47.032204" lon="10.976685">
        <ele>1393.363895</ele>
        <time>2025-07-13T16:54:13.805Z</time>
      </trkpt>
      <trkpt lat="47.032304" lon="10.976592">
        <ele>1391.882666</ele>
        <time>2025-07-13T16:54:15.420Z</time>
      </trkpt>
      <trkpt lat="47.032364" lon="10.976353">
        <ele>1389.710850</ele>
        <time>2025-07-13T16:54:17.737Z</time>
      </trkpt>
      <trkpt lat="47.032504" lon="10.976068">
        <ele>1386.715247</ele>
        <time>2025-07-13T16:54:20.853Z</time>
      </trkpt>
      <trkpt lat="47.032854" lon="10.975634">
        <ele>1380.982133</ele>
        <time>2025-07-13T16:54:26.692Z</time>
      </trkpt>
      <trkpt lat="47.032870" lon="10.975500">
        <ele>1379.822115</ele>
        <time>2025-07-13T16:54:27.871Z</time>
      </trkpt>
      <trkpt lat="47.032950" lon="10.975345">
        <ele>1378.164241</ele>
        <time>2025-07-13T16:54:29.571Z</time>
      </trkpt>
      <trkpt lat="47.033183" lon="10.975062">
        <ele>1373.985128</ele>
        <time>2025-07-13T16:54:33.448Z</time>
      </trkpt>
      <trkpt lat="47.033576" lon="10.974657">
        <ele>1366.915596</ele>
        <time>2025-07-13T16:54:39.672Z</time>
      </trkpt>
      <trkpt lat="47.033671" lon="10.974276">
        <ele>1362.845276</ele>
        <time>2025-07-13T16:54:43.254Z</time>
      </trkpt>
      <trkpt lat="47.034019" lon="10.973586">
        <ele>1354.233327</ele>
        <time>2025-07-13T16:54:50.892Z</time>
      </trkpt>
      <trkpt lat="47.034404" lon="10.973180">
        <ele>1346.752553</ele>
        <time>2025-07-13T16:54:56.980Z</time>
      </trkpt>
      <trkpt lat="47.034621" lon="10.973035">
        <ele>1342.632491</ele>
        <time>2025-07-13T16:55:00.000Z</time>
      </trkpt>
      <trkpt lat="47.034769" lon="10.972954">
        <ele>1339.903091</ele>
        <time>2025-07-13T16:55:01.985Z</time>
      </trkpt>
      <trkpt lat="47.034932" lon="10.972724">
        <ele>1335.995533</ele>
        <time>2025-07-13T16:55:04.831Z</time>
      </trkpt>
      <trkpt lat="47.035199" lon="10.972426">
        <ele>1330.198982</ele>
        <time>2025-07-13T16:55:09.055Z</time>
      </trkpt>
      <trkpt lat="47.035267" lon="10.972302">
        <ele>1328.324692</ele>
        <time>2025-07-13T16:55:10.420Z</time>
      </trkpt>
      <trkpt lat="47.035348" lon="10.972116">
        <ele>1325.725311</ele>
        <time>2025-07-13T16:55:12.320Z</time>
      </trkpt>
      <trkpt lat="47.035627" lon="10.971626">
        <ele>1318.391133</ele>
        <time>2025-07-13T16:55:17.853Z</time>
      </trkpt>
      <trkpt lat="47.035518" lon="10.971435">
        <ele>1316.092744</ele>
        <time>2025-07-13T16:55:20.022Z</time>
      </trkpt>
      <trkpt lat="47.035310" lon="10.971240">
        <ele>1312.751320</ele>
        <time>2025-07-13T16:55:23.198Z</time>
      </trkpt>
      <trkpt lat="47.035290" lon="10.971157">
        <ele>1311.939092</ele>
        <time>2025-07-13T16:55:23.973Z</time>
      </trkpt>
      <trkpt lat="47.035333" lon="10.970759">
        <ele>1308.221208</ele>
        <time>2025-07-13T16:55:27.569Z</time>
      </trkpt>
      <trkpt lat="47.035560" lon="10.969710">
        <ele>1298.066805</ele>
        <time>2025-07-13T16:55:37.523Z</time>
      </trkpt>
      <trkpt lat="47.035548" lon="10.969493">
        <ele>1296.058146</ele>
        <time>2025-07-13T16:55:39.482Z</time>
      </trkpt>
      <trkpt lat="47.035629" lon="10.969179">
        <ele>1293.249731</ele>
        <time>2025-07-13T16:55:42.493Z</time>
      </trkpt>
      <trkpt lat="47.035621" lon="10.968897">
        <ele>1291.075648</ele>
        <time>2025-07-13T16:55:45.010Z</time>
      </trkpt>
      <trkpt lat="47.035657" lon="10.968795">
        <ele>1290.190857</ele>
        <time>2025-07-13T16:55:46.031Z</time>
      </trkpt>
      <trkpt lat="47.035770" lon="10.969042">
        <ele>1287.899361</ele>
        <time>2025-07-13T16:55:48.688Z</time>
      </trkpt>
      <trkpt lat="47.035807" lon="10.969237">
        <ele>1286.340187</ele>
        <time>2025-07-13T16:55:50.493Z</time>
      </trkpt>
      <trkpt lat="47.035883" lon="10.969386">
        <ele>1284.906637</ele>
        <time>2025-07-13T16:55:52.153Z</time>
      </trkpt>
      <trkpt lat="47.035896" lon="10.969601">
        <ele>1283.244029</ele>
        <time>2025-07-13T16:55:54.097Z</time>
      </trkpt>
      <trkpt lat="47.035945" lon="10.969827">
        <ele>1281.417230</ele>
        <time>2025-07-13T16:55:56.250Z</time>
      </trkpt>
      <trkpt lat="47.036022" lon="10.969912">
        <ele>1280.328179</ele>
        <time>2025-07-13T16:55:57.543Z</time>
      </trkpt>
      <trkpt lat="47.036192" lon="10.969923">
        <ele>1278.404962</ele>
        <time>2025-07-13T16:55:59.844Z</time>
      </trkpt>
      <trkpt lat="47.036303" lon="10.970024">
        <ele>1276.928787</ele>
        <time>2025-07-13T16:56:01.620Z</time>
      </trkpt>
      <trkpt lat="47.036366" lon="10.970390">
        <ele>1274.063160</ele>
        <time>2025-07-13T16:56:05.179Z</time>
      </trkpt>
      <trkpt lat="47.036435" lon="10.970590">
        <ele>1272.537009</ele>
        <time>2025-07-13T16:56:07.318Z</time>
      </trkpt>
      <trkpt lat="47.036450" lon="10.971798">
        <ele>1264.311395</ele>
        <time>2025-07-13T16:56:18.982Z</time>
      </trkpt>
      <trkpt lat="47.036488" lon="10.972103">
        <ele>1262.200497</ele>
        <time>2025-07-13T16:56:21.887Z</time>
      </trkpt>
      <trkpt lat="47.036487" lon="10.972382">
        <ele>1260.300998</ele>
        <time>2025-07-13T16:56:24.458Z</time>
      </trkpt>
      <trkpt lat="47.036468" lon="10.972605">
        <ele>1258.770963</ele>
        <time>2025-07-13T16:56:26.489Z</time>
      </trkpt>
      <trkpt lat="47.036392" lon="10.972967">
        <ele>1256.123604</ele>
        <time>2025-07-13T16:56:29.850Z</time>
      </trkpt>
      <trkpt lat="47.036375" lon="10.973385">
        <ele>1252.400544</ele>
        <time>2025-07-13T16:56:33.507Z</time>
      </trkpt>
      <trkpt lat="47.036319" lon="10.973703">
        <ele>1249.480336</ele>
        <time>2025-07-13T16:56:36.357Z</time>
      </trkpt>
      <trkpt lat="47.036303" lon="10.974080">
        <ele>1246.121921</ele>
        <time>2025-07-13T16:56:39.610Z</time>
      </trkpt>
      <trkpt lat="47.036378" lon="10.974597">
        <ele>1241.422279</ele>
        <time>2025-07-13T16:56:44.213Z</time>
      </trkpt>
      <trkpt lat="47.036351" lon="10.974972">
        <ele>1238.069588</ele>
        <time>2025-07-13T16:56:47.573Z</time>
      </trkpt>
      <trkpt lat="47.036476" lon="10.975298">
        <ele>1234.743880</ele>
        <time>2025-07-13T16:56:51.040Z</time>
      </trkpt>
      <trkpt lat="47.036476" lon="10.975458">
        <ele>1233.321318</ele>
        <time>2025-07-13T16:56:52.601Z</time>
      </trkpt>
      <trkpt lat="47.036550" lon="10.975383">
        <ele>1232.592038</ele>
        <time>2025-07-13T16:56:53.897Z</time>
      </trkpt>
      <trkpt lat="47.036558" lon="10.975312">
        <ele>1232.305702</ele>
        <time>2025-07-13T16:56:54.648Z</time>
      </trkpt>
      <trkpt lat="47.036509" lon="10.975060">
        <ele>1231.263015</ele>
        <time>2025-07-13T16:56:57.423Z</time>
      </trkpt>
      <trkpt lat="47.036517" lon="10.975007">
        <ele>1231.047024</ele>
        <time>2025-07-13T16:56:58.001Z</time>
      </trkpt>
      <trkpt lat="47.036676" lon="10.974619">
        <ele>1229.245635</ele>
        <time>2025-07-13T16:57:03.255Z</time>
      </trkpt>
      <trkpt lat="47.036702" lon="10.973771">
        <ele>1225.868143</ele>
        <time>2025-07-13T16:57:12.665Z</time>
      </trkpt>
      <trkpt lat="47.036753" lon="10.973492">
        <ele>1224.718804</ele>
        <time>2025-07-13T16:57:15.488Z</time>
      </trkpt>
      <trkpt lat="47.036864" lon="10.973291">
        <ele>1223.689461</ele>
        <time>2025-07-13T16:57:18.009Z</time>
      </trkpt>
      <trkpt lat="47.036986" lon="10.972799">
        <ele>1221.075055</ele>
        <time>2025-07-13T16:57:23.073Z</time>
      </trkpt>
      <trkpt lat="47.037219" lon="10.972438">
        <ele>1217.852504</ele>
        <time>2025-07-13T16:57:27.660Z</time>
      </trkpt>
      <trkpt lat="47.037245" lon="10.972324">
        <ele>1217.073343</ele>
        <time>2025-07-13T16:57:28.759Z</time>
      </trkpt>
      <trkpt lat="47.037271" lon="10.972190">
        <ele>1216.170318</ele>
        <time>2025-07-13T16:57:30.025Z</time>
      </trkpt>
      <trkpt lat="47.037268" lon="10.971443">
        <ele>1211.328600</ele>
        <time>2025-07-13T16:57:36.760Z</time>
      </trkpt>
      <trkpt lat="47.037290" lon="10.971271">
        <ele>1210.194329</ele>
        <time>2025-07-13T16:57:38.351Z</time>
      </trkpt>
      <trkpt lat="47.037351" lon="10.971154">
        <ele>1209.239549</ele>
        <time>2025-07-13T16:57:39.699Z</time>
      </trkpt>
      <trkpt lat="47.037458" lon="10.971135">
        <ele>1208.214530</ele>
        <time>2025-07-13T16:57:41.165Z</time>
      </trkpt>
      <trkpt lat="47.037425" lon="10.971273">
        <ele>1207.266633</ele>
        <time>2025-07-13T16:57:42.400Z</time>
      </trkpt>
      <trkpt lat="47.037474" lon="10.971514">
        <ele>1205.636582</ele>
        <time>2025-07-13T16:57:44.570Z</time>
      </trkpt>
      <trkpt lat="47.037560" lon="10.971896">
        <ele>1204.070334</ele>
        <time>2025-07-13T16:57:48.076Z</time>
      </trkpt>
      <trkpt lat="47.037578" lon="10.972245">
        <ele>1202.821578</ele>
        <time>2025-07-13T16:57:51.086Z</time>
      </trkpt>
      <trkpt lat="47.037526" lon="10.972619">
        <ele>1201.459699</ele>
        <time>2025-07-13T16:57:54.387Z</time>
      </trkpt>
      <trkpt lat="47.037686" lon="10.973584">
        <ele>1197.916255</ele>
        <time>2025-07-13T16:58:03.517Z</time>
      </trkpt>
      <trkpt lat="47.037703" lon="10.973703">
        <ele>1197.482449</ele>
        <time>2025-07-13T16:58:04.690Z</time>
      </trkpt>
      <trkpt lat="47.037810" lon="10.973967">
        <ele>1196.386547</ele>
        <time>2025-07-13T16:58:07.706Z</time>
      </trkpt>
      <trkpt lat="47.037818" lon="10.973987">
        <ele>1196.303806</ele>
        <time>2025-07-13T16:58:07.947Z</time>
      </trkpt>
      <trkpt lat="47.038082" lon="10.974636">
        <ele>1195.702588</ele>
        <time>2025-07-13T16:58:15.868Z</time>
      </trkpt>
      <trkpt lat="47.038240" lon="10.974905">
        <ele>1195.578955</ele>
        <time>2025-07-13T16:58:19.901Z</time>
      </trkpt>
      <trkpt lat="47.038272" lon="10.974960">
        <ele>1195.553779</ele>
        <time>2025-07-13T16:58:20.762Z</time>
      </trkpt>
      <trkpt lat="47.038458" lon="10.975278">
        <ele>1195.407887</ele>
        <time>2025-07-13T16:58:25.809Z</time>
      </trkpt>
      <trkpt lat="47.038568" lon="10.975466">
        <ele>1195.321624</ele>
        <time>2025-07-13T16:58:28.979Z</time>
      </trkpt>
      <trkpt lat="47.038703" lon="10.975700">
        <ele>1195.214888</ele>
        <time>2025-07-13T16:58:33.195Z</time>
      </trkpt>
      <trkpt lat="47.039005" lon="10.976239">
        <ele>1195.091551</ele>
        <time>2025-07-13T16:58:43.429Z</time>
      </trkpt>
      <trkpt lat="47.039161" lon="10.976519">
        <ele>1195.357939</ele>
        <time>2025-07-13T16:58:48.863Z</time>
      </trkpt>
      <trkpt lat="47.039505" lon="10.977090">
        <ele>1195.919296</ele>
        <time>2025-07-13T16:59:00.250Z</time>
      </trkpt>
      <trkpt lat="47.039861" lon="10.977975">
        <ele>1196.676240</ele>
        <time>2025-07-13T16:59:15.283Z</time>
      </trkpt>
      <trkpt lat="47.039935" lon="10.978085">
        <ele>1196.790088</ele>
        <time>2025-07-13T16:59:17.407Z</time>
      </trkpt>
      <trkpt lat="47.040037" lon="10.978088">
        <ele>1196.900352</ele>
        <time>2025-07-13T16:59:19.418Z</time>
      </trkpt>
      <trkpt lat="47.040175" lon="10.978029">
        <ele>1196.919718</ele>
        <time>2025-07-13T16:59:22.079Z</time>
      </trkpt>
      <trkpt lat="47.040280" lon="10.978419">
        <ele>1196.814243</ele>
        <time>2025-07-13T16:59:27.136Z</time>
      </trkpt>
      <trkpt lat="47.040571" lon="10.978595">
        <ele>1196.698071</ele>
        <time>2025-07-13T16:59:32.522Z</time>
      </trkpt>
      <trkpt lat="47.040610" lon="10.978620">
        <ele>1196.682363</ele>
        <time>2025-07-13T16:59:33.240Z</time>
      </trkpt>
      <trkpt lat="47.040687" lon="10.978660">
        <ele>1196.652214</ele>
        <time>2025-07-13T16:59:34.630Z</time>
      </trkpt>
      <trkpt lat="47.041059" lon="10.977242">
        <ele>1196.292039</ele>
        <time>2025-07-13T16:59:52.825Z</time>
      </trkpt>
      <trkpt lat="47.041112" lon="10.977277">
        <ele>1196.293688</ele>
        <time>2025-07-13T16:59:56.837Z</time>
      </trkpt>
      <trkpt lat="47.041358" lon="10.976541">
        <ele>1196.309537</ele>
        <time>2025-07-13T17:00:35.699Z</time>
      </trkpt>
      <trkpt lat="47.041445" lon="10.976329">
        <ele>1196.314321</ele>
        <time>2025-07-13T17:00:47.393Z</time>
      </trkpt>
      <trkpt lat="47.041358" lon="10.976541">
        <ele>1196.319106</ele>
        <time>2025-07-13T17:00:59.086Z</time>
      </trkpt>
      <trkpt lat="47.041112" lon="10.977277">
        <ele>1196.334955</ele>
        <time>2025-07-13T17:01:37.948Z</time>
      </trkpt>
      <trkpt lat="47.041059" lon="10.977242">
        <ele>1196.336603</ele>
        <time>2025-07-13T17:01:41.960Z</time>
      </trkpt>
      <trkpt lat="47.040687" lon="10.978660">
        <ele>1196.765192</ele>
        <time>2025-07-13T17:02:02.341Z</time>
      </trkpt>
      <trkpt lat="47.040610" lon="10.978620">
        <ele>1196.805294</ele>
        <time>2025-07-13T17:02:04.068Z</time>
      </trkpt>
      <trkpt lat="47.040571" lon="10.978595">
        <ele>1196.826189</ele>
        <time>2025-07-13T17:02:04.969Z</time>
      </trkpt>
      <trkpt lat="47.040280" lon="10.978419">
        <ele>1196.980716</ele>
        <time>2025-07-13T17:02:11.427Z</time>
      </trkpt>
      <trkpt lat="47.040175" lon="10.978029">
        <ele>1197.121015</ele>
        <time>2025-07-13T17:02:16.987Z</time>
      </trkpt>
      <trkpt lat="47.040037" lon="10.978088">
        <ele>1197.191584</ele>
        <time>2025-07-13T17:02:19.702Z</time>
      </trkpt>
      <trkpt lat="47.039935" lon="10.978085">
        <ele>1197.224547</ele>
        <time>2025-07-13T17:02:21.638Z</time>
      </trkpt>
      <trkpt lat="47.039861" lon="10.977975">
        <ele>1197.224547</ele>
        <time>2025-07-13T17:02:23.603Z</time>
      </trkpt>
      <trkpt lat="47.039505" lon="10.977090">
        <ele>1197.224547</ele>
        <time>2025-07-13T17:02:36.281Z</time>
      </trkpt>
      <trkpt lat="47.039160" lon="10.977393">
        <ele>1197.224547</ele>
        <time>2025-07-13T17:02:43.794Z</time>
      </trkpt>
    </trkseg>
  </trk>
</gpx>